• Join FlightAware (Why Join?)
  • Login
  • US Flag 
02:46PM EDT


 

Airport Tracker/Info


-or-


 

Live Flight TrackerFlight Track Log ✈ N333RL ✈ 25-Apr-2013 ✈ KDET - KMQS

Flight Track Log - Related Links

Times and Time Zones

All times are in EDT time to prevent confusion due to time zone crossing. See the N333RL flight status page for this flight to view local times or setup timezone preferences in your user account.

Time Position Orientation Groundspeed Altitude Reporting Facility
EDT Latitude Longitude Course Direction KTS MPH feet Rate Location/Type
08:51AM 42.3483 -82.9458 142° Southeast 219 252 4,200  Level Cleveland Center
08:52AM 42.2956 -82.8794 137° Southeast 240 276 6,900 3,300 Climbing Cleveland Center
08:53AM 42.2597 -82.7883 118° Southeast 270 311 10,800 3,600 Climbing Cleveland Center
08:54AM 42.2475 -82.6589 97° East 297 342 14,200 3,180 Climbing Cleveland Center
08:55AM 42.2314 -82.5181 99° East 338 389 17,200 2,940 Climbing Cleveland Center
08:56AM 42.2172 -82.3606 97° East 385 443 20,100 2,880 Climbing Cleveland Center
08:57AM 42.2072 -82.1950 95° East 420 483 23,000 2,640 Climbing Cleveland Center
08:58AM 42.1886 -82.0094 98° East 450 518 25,400 2,400 Climbing Cleveland Center
08:59AM 42.1364 -81.8489 114° Southeast 456 525 27,800 2,040 Climbing Cleveland Center
09:00AM 42.0608 -81.7131 127° Southeast 456 525 29,500 1,320 Climbing Cleveland Center
09:01AM 41.9786 -81.5747 129° Southeast 467 537 30,500 900 Climbing Cleveland Center
09:02AM 41.9047 -81.4453 127° Southeast 480 552 31,400 900 Climbing Cleveland Center
09:03AM 41.8181 -81.2992 128° Southeast 486 559 32,400 960 Climbing Cleveland Center
09:04AM 41.7356 -81.1536 127° Southeast 491 565 33,400 1,020 Climbing Cleveland Center
09:05AM 41.6506 -81.0167 130° Southeast 491 565 34,500 780 Climbing Cleveland Center
09:06AM 41.5594 -80.8606 128° Southeast 491 565 35,000 240 Climbing Cleveland Center
09:07AM 41.4742 -80.7161 128° Southeast 497 572 35,000  Level Cleveland Center
09:08AM 41.3867 -80.5692 128° Southeast 497 572 35,000  Level Cleveland Center
09:09AM 41.3011 -80.4256 128° Southeast 498 573 35,000  Level Cleveland Center
09:10AM 41.2239 -80.2961 128° Southeast 504 580 35,000  Level Cleveland Center
09:11AM 41.1378 -80.1531 129° Southeast 494 568 35,000  Level Cleveland Center
09:12AM 41.0517 -80.0106 129° Southeast 494 568 35,000  Level Cleveland Center
09:13AM 40.9656 -79.8708 129° Southeast 494 568 35,000  Level Cleveland Center
09:14AM 40.8792 -79.7344 130° Southeast 494 568 35,000  Level Cleveland Center
09:15AM 40.7947 -79.5986 129° Southeast 494 568 35,000  Level Cleveland Center
09:16AM 40.7122 -79.4656 129° Southeast 482 555 35,000  Level Cleveland Center
09:17AM 40.6314 -79.3328 129° Southeast 477 549 35,000  Level Cleveland Center
09:18AM 40.5467 -79.2006 130° Southeast 471 542 35,000 -300 Level Cleveland Center
09:19AM 40.4864 -79.0461 117° Southeast 471 542 34,500 -600 Descending Cleveland Center
09:20AM 40.4586 -78.8694 102° East 471 542 33,800 -1,080 Descending Cleveland Center
09:21AM 40.4453 -78.6869 95° East 482 555 32,400 -2,100 Descending Cleveland Center
09:22AM 40.4297 -78.5019 96° East 495 570 29,700 -2,700 Descending Cleveland Center
09:23AM 40.4158 -78.3225 96° East 500 575 27,000 -2,160 Descending Cleveland Center
09:24AM 40.3983 -78.1083 96° East 526 605 25,000 -960 Descending New York Center
09:25AM 40.3819 -77.9322 97° East 505 581 25,000 -60 Level New York Center
09:26AM 40.3631 -77.7258 97° East 505 581 24,900 -480 Descending New York Center
09:27AM 40.3375 -77.5544 101° East 499 574 24,100 -600 Descending New York Center
09:28AM 40.3097 -77.3828 102° East 487 560 23,800 -660 Descending New York Center
09:29AM 40.2778 -77.2083 103° East 487 560 22,800 -1,260 Descending New York Center
09:30AM 40.2492 -77.0397 102° East 482 555 21,300 -1,380 Descending New York Center
09:31AM 40.2203 -76.8767 103° East 466 536 20,100 -1,620 Descending New York Center
09:32AM 40.2000 -76.7417 101° East 441 507 18,200 -1,980 Descending New York Center
09:33AM 40.1725 -76.5844 103° East 406 467 16,200 -1,980 Descending New York Center
09:34AM 40.1481 -76.4439 103° East 400 460 14,300 -1,980 Descending New York Center
09:35AM 40.1294 -76.3464 104° East 369 425 12,900 -1,740 Descending FAA TRACON SMA TRACON (SMA)
09:35AM 40.1225 -76.3092 104° East 359 413 12,500 -1,080 Descending FAA TRACON SMA TRACON (SMA)
09:36AM 40.1175 -76.2711 100° East 344 396 12,200 -1,200 Descending FAA TRACON SMA TRACON (SMA)
09:36AM 40.1147 -76.2244 94° East 340 391 11,700 -1,500 Descending FAA TRACON SMA TRACON (SMA)
09:36AM 40.1125 -76.1867 94° East 337 388 11,200 -1,380 Descending FAA TRACON SMA TRACON (SMA)
09:37AM 40.1100 -76.1500 95° East 334 384 10,800 -1,500 Descending FAA TRACON SMA TRACON (SMA)
09:37AM 40.1072 -76.1053 95° East 329 379 10,200 -1,680 Descending FAA TRACON SMA TRACON (SMA)
09:37AM 40.1047 -76.0697 95° East 320 368 9,700 -2,100 Descending FAA TRACON SMA TRACON (SMA)
09:38AM 40.1033 -76.0353 93° East 315 362 8,800 -3,000 Descending FAA TRACON SMA TRACON (SMA)
09:38AM 40.1008 -75.9931 94° East 307 353 7,700 -2,700 Descending FAA TRACON SMA TRACON (SMA)
09:38AM 40.0989 -75.9597 94° East 303 349 7,000 -1,980 Descending FAA TRACON SMA TRACON (SMA)
09:39AM 40.0950 -75.9275 99° East 298 343 6,400 -2,280 Descending FAA TRACON SMA TRACON (SMA)
09:39AM 40.0775 -75.8956 126° Southeast 289 333 5,500 -1,800 Descending FAA TRACON SMA TRACON (SMA)
09:39AM 40.0569 -75.8889 166° South 244 281 5,200 -1,080 Descending FAA TRACON SMA TRACON (SMA)
09:40AM 40.0347 -75.8944 191° South 263 303 4,800 -1,680 Descending FAA TRACON SMA TRACON (SMA)
09:40AM 40.0108 -75.9022 194° South 248 285 4,100 -1,200 Descending FAA TRACON SMA TRACON (SMA)
09:40AM 40.0053 -75.9036 191° South 243 280 4,000 -180 Descending FAA TRACON SMA TRACON (SMA)
09:41AM 40.0053 -75.9036 201° Southwest 243 280 4,000  Level FAA TRACON SMA TRACON (SMA)
09:53AM 39.9790 -75.8655 131° Southeast  Level Estimated